sensor_id;sensor_type;location;lat;lon;timestamp;pressure;altitude;pressure_sealevel;temperature;humidity
12676;BME280;63820;65.654;21.944;2022-10-16T00:02:15;100019.06;;;8.13;100.00
12676;BME280;63820;65.654;21.944;2022-10-16T00:05:00;100016.78;;;8.06;100.00
12676;BME280;63820;65.654;21.944;2022-10-16T00:07:44;100033.41;;;8.00;100.00
12676;BME280;63820;65.654;21.944;2022-10-16T00:10:28;100027.25;;;7.81;100.00
12676;BME280;63820;65.654;21.944;2022-10-16T00:13:13;100043.03;;;7.75;100.00
12676;BME280;63820;65.654;21.944;2022-10-16T00:15:58;100046.53;;;7.74;100.00
12676;BME280;63820;65.654;21.944;2022-10-16T00:18:42;100054.38;;;7.72;100.00
12676;BME280;63820;65.654;21.944;2022-10-16T00:21:28;100059.22;;;7.58;100.00
12676;BME280;63820;65.654;21.944;2022-10-16T00:24:12;100050.38;;;7.64;100.00
12676;BME280;63820;65.654;21.944;2022-10-16T00:26:56;100055.50;;;7.65;100.00
12676;BME280;63820;65.654;21.944;2022-10-16T00:29:40;100046.03;;;7.64;100.00
12676;BME280;63820;65.654;21.944;2022-10-16T00:32:24;100048.97;;;7.55;100.00
12676;BME280;63820;65.654;21.944;2022-10-16T00:35:08;100047.34;;;7.52;100.00
12676;BME280;63820;65.654;21.944;2022-10-16T00:37:52;100045.16;;;7.42;100.00
12676;BME280;63820;65.654;21.944;2022-10-16T00:40:36;100057.03;;;7.47;100.00
12676;BME280;63820;65.654;21.944;2022-10-16T00:43:46;100059.22;;;7.35;100.00
12676;BME280;63820;65.654;21.944;2022-10-16T00:46:38;100059.94;;;7.16;100.00
12676;BME280;63820;65.654;21.944;2022-10-16T00:49:22;100059.97;;;7.15;100.00
12676;BME280;63820;65.654;21.944;2022-10-16T00:52:06;100064.06;;;6.97;100.00
12676;BME280;63820;65.654;21.944;2022-10-16T00:54:52;100072.44;;;7.04;100.00
12676;BME280;63820;65.654;21.944;2022-10-16T00:57:37;100076.66;;;7.06;100.00
12676;BME280;63820;65.654;21.944;2022-10-16T01:00:24;100085.97;;;6.87;100.00
12676;BME280;63820;65.654;21.944;2022-10-16T01:03:27;100074.41;;;6.97;100.00
12676;BME280;63820;65.654;21.944;2022-10-16T01:06:39;100080.59;;;6.93;100.00
12676;BME280;63820;65.654;21.944;2022-10-16T01:09:57;100081.47;;;6.92;100.00
12676;BME280;63820;65.654;21.944;2022-10-16T01:12:58;100081.78;;;6.83;100.00
12676;BME280;63820;65.654;21.944;2022-10-16T01:18:44;100085.63;;;6.71;100.00
12676;BME280;63820;65.654;21.944;2022-10-16T01:21:37;100089.38;;;6.63;100.00
12676;BME280;63820;65.654;21.944;2022-10-16T01:24:39;100070.84;;;6.50;100.00
12676;BME280;63820;65.654;21.944;2022-10-16T01:27:32;100072.97;;;6.64;100.00
12676;BME280;63820;65.654;21.944;2022-10-16T01:30:26;100075.97;;;6.51;100.00
12676;BME280;63820;65.654;21.944;2022-10-16T01:33:19;100075.53;;;6.39;100.00
12676;BME280;63820;65.654;21.944;2022-10-16T01:36:13;100082.88;;;6.51;100.00
12676;BME280;63820;65.654;21.944;2022-10-16T01:39:00;100091.25;;;6.31;100.00
12676;BME280;63820;65.654;21.944;2022-10-16T01:41:49;100083.84;;;6.22;100.00
12676;BME280;63820;65.654;21.944;2022-10-16T01:44:36;100091.59;;;6.22;100.00
12676;BME280;63820;65.654;21.944;2022-10-16T01:47:23;100086.06;;;6.33;100.00
12676;BME280;63820;65.654;21.944;2022-10-16T01:50:10;100088.38;;;6.40;100.00
12676;BME280;63820;65.654;21.944;2022-10-16T01:52:56;100091.22;;;6.33;100.00
12676;BME280;63820;65.654;21.944;2022-10-16T01:55:44;100087.28;;;6.22;100.00
12676;BME280;63820;65.654;21.944;2022-10-16T01:58:30;100097.66;;;6.21;100.00
12676;BME280;63820;65.654;21.944;2022-10-16T02:01:22;100099.00;;;6.31;100.00
12676;BME280;63820;65.654;21.944;2022-10-16T02:04:34;100094.59;;;6.08;100.00
12676;BME280;63820;65.654;21.944;2022-10-16T02:07:20;100090.78;;;6.20;100.00
12676;BME280;63820;65.654;21.944;2022-10-16T02:10:04;100092.16;;;6.30;100.00
12676;BME280;63820;65.654;21.944;2022-10-16T02:12:55;100090.09;;;6.15;100.00
12676;BME280;63820;65.654;21.944;2022-10-16T02:15:41;100096.81;;;6.20;100.00
12676;BME280;63820;65.654;21.944;2022-10-16T02:18:26;100100.28;;;6.19;100.00
12676;BME280;63820;65.654;21.944;2022-10-16T02:21:24;100098.50;;;6.21;100.00
12676;BME280;63820;65.654;21.944;2022-10-16T02:30:05;100120.84;;;5.95;100.00
12676;BME280;63820;65.654;21.944;2022-10-16T02:32:52;100104.66;;;5.88;100.00
12676;BME280;63820;65.654;21.944;2022-10-16T02:35:38;100119.75;;;5.72;100.00
12676;BME280;63820;65.654;21.944;2022-10-16T02:38:23;100116.28;;;5.73;100.00
12676;BME280;63820;65.654;21.944;2022-10-16T02:41:08;100126.81;;;5.66;100.00
12676;BME280;63820;65.654;21.944;2022-10-16T02:43:53;100138.34;;;5.83;100.00
12676;BME280;63820;65.654;21.944;2022-10-16T02:46:38;100138.13;;;5.93;100.00
12676;BME280;63820;65.654;21.944;2022-10-16T02:49:22;100139.81;;;5.94;100.00
12676;BME280;63820;65.654;21.944;2022-10-16T02:52:06;100143.19;;;5.96;100.00
12676;BME280;63820;65.654;21.944;2022-10-16T02:54:50;100134.13;;;5.81;100.00
12676;BME280;63820;65.654;21.944;2022-10-16T02:57:35;100141.50;;;5.64;100.00
12676;BME280;63820;65.654;21.944;2022-10-16T03:00:21;100149.69;;;5.48;100.00
12676;BME280;63820;65.654;21.944;2022-10-16T03:03:05;100158.34;;;5.46;100.00
12676;BME280;63820;65.654;21.944;2022-10-16T03:05:50;100153.69;;;5.28;100.00
12676;BME280;63820;65.654;21.944;2022-10-16T03:08:34;100150.91;;;5.04;100.00
12676;BME280;63820;65.654;21.944;2022-10-16T03:11:18;100157.13;;;4.96;100.00
12676;BME280;63820;65.654;21.944;2022-10-16T03:14:02;100146.31;;;4.81;100.00
12676;BME280;63820;65.654;21.944;2022-10-16T03:16:46;100153.34;;;4.75;100.00
12676;BME280;63820;65.654;21.944;2022-10-16T03:19:30;100152.50;;;4.74;100.00
12676;BME280;63820;65.654;21.944;2022-10-16T03:22:13;100151.50;;;4.80;100.00
12676;BME280;63820;65.654;21.944;2022-10-16T03:24:57;100149.97;;;4.73;100.00
12676;BME280;63820;65.654;21.944;2022-10-16T03:27:42;100168.16;;;4.67;100.00
12676;BME280;63820;65.654;21.944;2022-10-16T03:30:26;100161.94;;;4.75;100.00
12676;BME280;63820;65.654;21.944;2022-10-16T03:33:11;100163.22;;;4.57;100.00
12676;BME280;63820;65.654;21.944;2022-10-16T03:35:55;100150.78;;;4.39;100.00
12676;BME280;63820;65.654;21.944;2022-10-16T03:38:39;100154.00;;;4.12;100.00
12676;BME280;63820;65.654;21.944;2022-10-16T03:41:23;100162.38;;;3.81;100.00
12676;BME280;63820;65.654;21.944;2022-10-16T03:44:07;100159.31;;;3.64;100.00
12676;BME280;63820;65.654;21.944;2022-10-16T03:46:51;100161.53;;;3.38;100.00
12676;BME280;63820;65.654;21.944;2022-10-16T03:49:35;100157.38;;;3.31;100.00
12676;BME280;63820;65.654;21.944;2022-10-16T03:52:19;100163.56;;;3.20;100.00
12676;BME280;63820;65.654;21.944;2022-10-16T03:55:03;100161.50;;;2.94;100.00
12676;BME280;63820;65.654;21.944;2022-10-16T03:57:47;100173.03;;;2.71;100.00
12676;BME280;63820;65.654;21.944;2022-10-16T04:00:32;100172.19;;;2.69;100.00
12676;BME280;63820;65.654;21.944;2022-10-16T04:03:16;100177.44;;;2.61;100.00
12676;BME280;63820;65.654;21.944;2022-10-16T04:06:01;100187.88;;;2.50;100.00
12676;BME280;63820;65.654;21.944;2022-10-16T04:08:45;100186.19;;;2.49;100.00
12676;BME280;63820;65.654;21.944;2022-10-16T04:11:29;100192.25;;;2.99;100.00
12676;BME280;63820;65.654;21.944;2022-10-16T04:14:13;100195.25;;;3.67;100.00
12676;BME280;63820;65.654;21.944;2022-10-16T04:16:57;100205.16;;;3.87;100.00
12676;BME280;63820;65.654;21.944;2022-10-16T04:19:41;100196.25;;;4.02;100.00
12676;BME280;63820;65.654;21.944;2022-10-16T04:22:25;100186.75;;;4.05;100.00
12676;BME280;63820;65.654;21.944;2022-10-16T04:25:09;100184.66;;;3.82;100.00
12676;BME280;63820;65.654;21.944;2022-10-16T04:27:53;100192.03;;;3.99;100.00
12676;BME280;63820;65.654;21.944;2022-10-16T04:30:38;100184.13;;;4.08;100.00
12676;BME280;63820;65.654;21.944;2022-10-16T04:33:22;100194.72;;;4.32;100.00
12676;BME280;63820;65.654;21.944;2022-10-16T04:36:06;100194.00;;;4.25;100.00
12676;BME280;63820;65.654;21.944;2022-10-16T04:38:50;100193.72;;;4.00;100.00
12676;BME280;63820;65.654;21.944;2022-10-16T04:41:34;100193.25;;;3.81;100.00
12676;BME280;63820;65.654;21.944;2022-10-16T04:44:18;100197.88;;;3.64;100.00
12676;BME280;63820;65.654;21.944;2022-10-16T04:47:02;100198.06;;;3.55;100.00
12676;BME280;63820;65.654;21.944;2022-10-16T04:49:46;100198.16;;;3.50;100.00
12676;BME280;63820;65.654;21.944;2022-10-16T04:52:30;100200.22;;;3.76;100.00
12676;BME280;63820;65.654;21.944;2022-10-16T04:55:15;100199.47;;;3.71;100.00
12676;BME280;63820;65.654;21.944;2022-10-16T04:57:59;100199.03;;;3.92;100.00
12676;BME280;63820;65.654;21.944;2022-10-16T05:00:44;100200.09;;;3.82;100.00
12676;BME280;63820;65.654;21.944;2022-10-16T05:03:28;100197.72;;;4.13;100.00
12676;BME280;63820;65.654;21.944;2022-10-16T05:06:12;100194.59;;;3.99;100.00
12676;BME280;63820;65.654;21.944;2022-10-16T05:08:56;100185.69;;;3.74;100.00
12676;BME280;63820;65.654;21.944;2022-10-16T05:11:40;100188.75;;;3.91;100.00
12676;BME280;63820;65.654;21.944;2022-10-16T05:14:24;100179.38;;;3.88;100.00
12676;BME280;63820;65.654;21.944;2022-10-16T05:17:08;100187.13;;;3.87;100.00
12676;BME280;63820;65.654;21.944;2022-10-16T05:19:53;100190.38;;;3.97;100.00
12676;BME280;63820;65.654;21.944;2022-10-16T05:22:37;100181.69;;;4.01;100.00
12676;BME280;63820;65.654;21.944;2022-10-16T05:25:21;100182.72;;;3.93;100.00
12676;BME280;63820;65.654;21.944;2022-10-16T05:28:05;100186.28;;;3.86;100.00
12676;BME280;63820;65.654;21.944;2022-10-16T05:30:49;100188.91;;;3.83;100.00
12676;BME280;63820;65.654;21.944;2022-10-16T05:33:34;100202.38;;;3.96;100.00
12676;BME280;63820;65.654;21.944;2022-10-16T05:36:18;100196.19;;;3.63;100.00
12676;BME280;63820;65.654;21.944;2022-10-16T05:39:03;100192.25;;;3.45;100.00
12676;BME280;63820;65.654;21.944;2022-10-16T05:41:49;100195.19;;;3.25;100.00
12676;BME280;63820;65.654;21.944;2022-10-16T05:44:33;100187.69;;;3.13;100.00
12676;BME280;63820;65.654;21.944;2022-10-16T05:47:17;100190.06;;;3.24;100.00
12676;BME280;63820;65.654;21.944;2022-10-16T05:50:01;100191.28;;;3.05;100.00
12676;BME280;63820;65.654;21.944;2022-10-16T05:52:45;100194.97;;;2.90;100.00
12676;BME280;63820;65.654;21.944;2022-10-16T05:55:29;100190.81;;;2.83;100.00
12676;BME280;63820;65.654;21.944;2022-10-16T05:58:13;100195.56;;;3.06;100.00
12676;BME280;63820;65.654;21.944;2022-10-16T06:01:06;100196.41;;;3.06;100.00
12676;BME280;63820;65.654;21.944;2022-10-16T06:03:51;100197.97;;;3.13;100.00
12676;BME280;63820;65.654;21.944;2022-10-16T06:06:36;100185.00;;;3.19;100.00
12676;BME280;63820;65.654;21.944;2022-10-16T06:09:20;100201.41;;;3.12;100.00
12676;BME280;63820;65.654;21.944;2022-10-16T06:12:04;100195.41;;;3.13;100.00
12676;BME280;63820;65.654;21.944;2022-10-16T06:14:48;100189.22;;;3.23;100.00
12676;BME280;63820;65.654;21.944;2022-10-16T06:17:32;100187.31;;;3.33;100.00
12676;BME280;63820;65.654;21.944;2022-10-16T06:20:16;100181.94;;;3.47;100.00
12676;BME280;63820;65.654;21.944;2022-10-16T06:23:00;100206.88;;;3.86;100.00
12676;BME280;63820;65.654;21.944;2022-10-16T06:25:45;100194.94;;;4.22;100.00
12676;BME280;63820;65.654;21.944;2022-10-16T06:28:29;100187.34;;;4.16;100.00
12676;BME280;63820;65.654;21.944;2022-10-16T06:31:14;100191.38;;;4.28;100.00
12676;BME280;63820;65.654;21.944;2022-10-16T06:33:59;100188.59;;;4.37;100.00
12676;BME280;63820;65.654;21.944;2022-10-16T06:36:43;100182.09;;;4.58;100.00
12676;BME280;63820;65.654;21.944;2022-10-16T06:39:27;100175.66;;;4.76;100.00
12676;BME280;63820;65.654;21.944;2022-10-16T06:42:12;100164.06;;;4.93;100.00
12676;BME280;63820;65.654;21.944;2022-10-16T06:44:56;100170.78;;;4.99;100.00
12676;BME280;63820;65.654;21.944;2022-10-16T06:47:39;100166.63;;;4.93;100.00
12676;BME280;63820;65.654;21.944;2022-10-16T06:50:23;100162.72;;;4.79;100.00
12676;BME280;63820;65.654;21.944;2022-10-16T06:53:07;100164.72;;;5.02;100.00
12676;BME280;63820;65.654;21.944;2022-10-16T06:55:51;100158.72;;;5.01;100.00
12676;BME280;63820;65.654;21.944;2022-10-16T06:58:35;100159.19;;;5.15;100.00
12676;BME280;63820;65.654;21.944;2022-10-16T07:01:22;100169.47;;;5.48;100.00
12676;BME280;63820;65.654;21.944;2022-10-16T07:04:06;100158.09;;;5.55;100.00
12676;BME280;63820;65.654;21.944;2022-10-16T07:06:50;100150.97;;;5.63;100.00
12676;BME280;63820;65.654;21.944;2022-10-16T07:09:35;100151.25;;;5.83;100.00
12676;BME280;63820;65.654;21.944;2022-10-16T07:12:19;100155.56;;;5.83;100.00
12676;BME280;63820;65.654;21.944;2022-10-16T07:15:04;100154.25;;;5.70;100.00
12676;BME280;63820;65.654;21.944;2022-10-16T07:17:48;100154.81;;;5.79;100.00
12676;BME280;63820;65.654;21.944;2022-10-16T07:20:32;100162.66;;;5.76;100.00
12676;BME280;63820;65.654;21.944;2022-10-16T07:23:17;100155.56;;;5.53;100.00
12676;BME280;63820;65.654;21.944;2022-10-16T07:26:01;100160.50;;;5.61;100.00
12676;BME280;63820;65.654;21.944;2022-10-16T07:28:45;100154.97;;;5.44;100.00
12676;BME280;63820;65.654;21.944;2022-10-16T07:31:29;100150.78;;;5.40;100.00
12676;BME280;63820;65.654;21.944;2022-10-16T07:34:16;100142.28;;;5.36;100.00
12676;BME280;63820;65.654;21.944;2022-10-16T07:37:00;100142.78;;;5.49;100.00
12676;BME280;63820;65.654;21.944;2022-10-16T07:39:44;100137.03;;;5.70;100.00
12676;BME280;63820;65.654;21.944;2022-10-16T07:42:28;100129.63;;;5.87;100.00
12676;BME280;63820;65.654;21.944;2022-10-16T07:45:12;100125.09;;;5.66;100.00
12676;BME280;63820;65.654;21.944;2022-10-16T07:47:57;100109.97;;;5.83;100.00
12676;BME280;63820;65.654;21.944;2022-10-16T07:50:41;100125.78;;;6.02;100.00
12676;BME280;63820;65.654;21.944;2022-10-16T07:53:25;100111.66;;;6.14;100.00
12676;BME280;63820;65.654;21.944;2022-10-16T07:56:10;100118.00;;;6.30;100.00
12676;BME280;63820;65.654;21.944;2022-10-16T07:58:55;100097.53;;;6.24;100.00
12676;BME280;63820;65.654;21.944;2022-10-16T08:01:40;100104.38;;;6.25;100.00
12676;BME280;63820;65.654;21.944;2022-10-16T08:04:26;100113.25;;;6.18;100.00
12676;BME280;63820;65.654;21.944;2022-10-16T08:07:09;100114.63;;;6.28;100.00
12676;BME280;63820;65.654;21.944;2022-10-16T08:09:53;100118.00;;;6.30;100.00
12676;BME280;63820;65.654;21.944;2022-10-16T08:12:40;100123.66;;;6.68;100.00
12676;BME280;63820;65.654;21.944;2022-10-16T08:15:24;100117.31;;;6.78;100.00
12676;BME280;63820;65.654;21.944;2022-10-16T08:18:09;100091.91;;;6.64;100.00
12676;BME280;63820;65.654;21.944;2022-10-16T08:20:58;100107.53;;;6.86;100.00
12676;BME280;63820;65.654;21.944;2022-10-16T08:23:43;100096.03;;;6.70;100.00
12676;BME280;63820;65.654;21.944;2022-10-16T08:26:30;100089.94;;;6.46;100.00
12676;BME280;63820;65.654;21.944;2022-10-16T08:29:14;100106.78;;;6.57;100.00
12676;BME280;63820;65.654;21.944;2022-10-16T08:31:58;100105.94;;;6.57;100.00
12676;BME280;63820;65.654;21.944;2022-10-16T08:34:42;100087.28;;;6.47;100.00
12676;BME280;63820;65.654;21.944;2022-10-16T08:37:30;100066.41;;;6.53;100.00
12676;BME280;63820;65.654;21.944;2022-10-16T08:40:24;100070.63;;;6.56;100.00
12676;BME280;63820;65.654;21.944;2022-10-16T08:48:56;100059.06;;;6.41;100.00
12676;BME280;63820;65.654;21.944;2022-10-16T08:51:43;100066.81;;;6.41;100.00
12676;BME280;63820;65.654;21.944;2022-10-16T08:54:36;100077.06;;;6.44;100.00
12676;BME280;63820;65.654;21.944;2022-10-16T08:57:25;100081.38;;;6.44;100.00
12676;BME280;63820;65.654;21.944;2022-10-16T09:00:14;100094.06;;;6.51;100.00
12676;BME280;63820;65.654;21.944;2022-10-16T09:09:00;100075.75;;;6.31;100.00
12676;BME280;63820;65.654;21.944;2022-10-16T09:23:40;100036.06;;;6.09;100.00
12676;BME280;63820;65.654;21.944;2022-10-16T09:26:24;100037.09;;;6.03;100.00
12676;BME280;63820;65.654;21.944;2022-10-16T09:29:12;100028.03;;;5.90;100.00
12676;BME280;63820;65.654;21.944;2022-10-16T09:31:57;100033.13;;;5.93;100.00
12676;BME280;63820;65.654;21.944;2022-10-16T09:34:52;100037.28;;;5.97;100.00
12676;BME280;63820;65.654;21.944;2022-10-16T09:37:38;100028.53;;;6.01;100.00
12676;BME280;63820;65.654;21.944;2022-10-16T09:40:30;100025.91;;;6.03;100.00
12676;BME280;63820;65.654;21.944;2022-10-16T09:43:26;100014.56;;;6.08;100.00
12676;BME280;63820;65.654;21.944;2022-10-16T09:46:26;100007.19;;;6.22;100.00
12676;BME280;63820;65.654;21.944;2022-10-16T09:49:37;100010.69;;;6.21;100.00
12676;BME280;63820;65.654;21.944;2022-10-16T09:52:21;100016.84;;;6.17;100.00
12676;BME280;63820;65.654;21.944;2022-10-16T09:55:14;100002.44;;;6.10;100.00
12676;BME280;63820;65.654;21.944;2022-10-16T09:57:59;99993.84;;;6.10;100.00
12676;BME280;63820;65.654;21.944;2022-10-16T10:00:52;100000.00;;;6.06;100.00
12676;BME280;63820;65.654;21.944;2022-10-16T10:03:39;100001.59;;;6.10;100.00
12676;BME280;63820;65.654;21.944;2022-10-16T10:06:33;99994.75;;;6.09;100.00
12676;BME280;63820;65.654;21.944;2022-10-16T10:09:24;99969.41;;;6.20;100.00
12676;BME280;63820;65.654;21.944;2022-10-16T10:12:21;99961.41;;;6.26;100.00
12676;BME280;63820;65.654;21.944;2022-10-16T10:15:11;99959.03;;;6.21;100.00
12676;BME280;63820;65.654;21.944;2022-10-16T10:17:57;99947.91;;;6.19;100.00
12676;BME280;63820;65.654;21.944;2022-10-16T10:20:41;99947.34;;;6.10;100.00
12676;BME280;63820;65.654;21.944;2022-10-16T10:23:27;99943.97;;;6.08;100.00
12676;BME280;63820;65.654;21.944;2022-10-16T10:26:16;99935.94;;;6.17;100.00
12676;BME280;63820;65.654;21.944;2022-10-16T10:37:49;99925.94;;;6.31;100.00
12676;BME280;63820;65.654;21.944;2022-10-16T10:40:56;99910.22;;;6.37;100.00
12676;BME280;63820;65.654;21.944;2022-10-16T10:46:39;99897.81;;;6.47;100.00
12676;BME280;63820;65.654;21.944;2022-10-16T10:55:40;99882.72;;;6.60;100.00
12676;BME280;63820;65.654;21.944;2022-10-16T10:58:44;99860.13;;;6.65;100.00
12676;BME280;63820;65.654;21.944;2022-10-16T11:01:55;99853.06;;;6.70;100.00
12676;BME280;63820;65.654;21.944;2022-10-16T11:07:49;99848.56;;;6.51;100.00
12676;BME280;63820;65.654;21.944;2022-10-16T11:10:54;99836.44;;;6.53;100.00
12676;BME280;63820;65.654;21.944;2022-10-16T11:13:56;99836.19;;;6.60;100.00
12676;BME280;63820;65.654;21.944;2022-10-16T11:19:45;99822.38;;;6.61;100.00
12676;BME280;63820;65.654;21.944;2022-10-16T11:22:38;99810.13;;;6.66;100.00
12676;BME280;63820;65.654;21.944;2022-10-16T11:25:32;99802.38;;;6.66;100.00
12676;BME280;63820;65.654;21.944;2022-10-16T11:28:20;99790.22;;;6.68;100.00
12676;BME280;63820;65.654;21.944;2022-10-16T11:31:55;99783.25;;;6.70;100.00
12676;BME280;63820;65.654;21.944;2022-10-16T11:34:43;99784.28;;;6.66;100.00
12676;BME280;63820;65.654;21.944;2022-10-16T11:37:39;99771.91;;;6.74;100.00
12676;BME280;63820;65.654;21.944;2022-10-16T11:40:31;99773.47;;;6.78;100.00
12676;BME280;63820;65.654;21.944;2022-10-16T11:43:28;99771.66;;;6.80;100.00
12676;BME280;63820;65.654;21.944;2022-10-16T11:46:20;99770.66;;;6.84;100.00
12676;BME280;63820;65.654;21.944;2022-10-16T11:49:13;99762.88;;;6.84;100.00
12676;BME280;63820;65.654;21.944;2022-10-16T11:52:15;99758.75;;;6.80;100.00
12676;BME280;63820;65.654;21.944;2022-10-16T11:55:13;99763.00;;;6.81;100.00
12676;BME280;63820;65.654;21.944;2022-10-16T11:58:03;99768.41;;;6.75;100.00
12676;BME280;63820;65.654;21.944;2022-10-16T12:01:17;99774.19;;;6.81;100.00
12676;BME280;63820;65.654;21.944;2022-10-16T12:04:25;99755.06;;;6.85;100.00
12676;BME280;63820;65.654;21.944;2022-10-16T12:07:19;99753.16;;;6.91;100.00
12676;BME280;63820;65.654;21.944;2022-10-16T12:10:24;99738.47;;;6.91;100.00
12676;BME280;63820;65.654;21.944;2022-10-16T12:13:31;99727.94;;;6.96;100.00
12676;BME280;63820;65.654;21.944;2022-10-16T12:19:18;99716.31;;;7.06;100.00
12676;BME280;63820;65.654;21.944;2022-10-16T12:22:02;99709.69;;;7.20;100.00
12676;BME280;63820;65.654;21.944;2022-10-16T12:24:51;99702.56;;;7.26;100.00
12676;BME280;63820;65.654;21.944;2022-10-16T12:27:35;99702.41;;;7.29;100.00
12676;BME280;63820;65.654;21.944;2022-10-16T12:30:23;99698.59;;;7.37;100.00
12676;BME280;63820;65.654;21.944;2022-10-16T12:33:25;99690.69;;;7.40;100.00
12676;BME280;63820;65.654;21.944;2022-10-16T12:36:14;99690.81;;;7.37;100.00
12676;BME280;63820;65.654;21.944;2022-10-16T12:39:00;99693.41;;;7.37;100.00
12676;BME280;63820;65.654;21.944;2022-10-16T12:41:45;99680.59;;;7.34;100.00
12676;BME280;63820;65.654;21.944;2022-10-16T12:44:33;99685.06;;;7.31;100.00
12676;BME280;63820;65.654;21.944;2022-10-16T12:47:48;99678.56;;;7.22;100.00
12676;BME280;63820;65.654;21.944;2022-10-16T12:50:38;99666.47;;;7.22;100.00
12676;BME280;63820;65.654;21.944;2022-10-16T12:53:25;99652.19;;;7.14;100.00
12676;BME280;63820;65.654;21.944;2022-10-16T12:56:19;99661.38;;;7.21;100.00
12676;BME280;63820;65.654;21.944;2022-10-16T13:12:12;99644.50;;;7.12;100.00
12676;BME280;63820;65.654;21.944;2022-10-16T13:21:57;99640.66;;;7.21;100.00
12676;BME280;63820;65.654;21.944;2022-10-16T13:28:04;99633.50;;;7.07;100.00
12676;BME280;63820;65.654;21.944;2022-10-16T13:30:55;99620.69;;;7.04;100.00
12676;BME280;63820;65.654;21.944;2022-10-16T13:33:42;99625.75;;;7.07;100.00
12676;BME280;63820;65.654;21.944;2022-10-16T13:36:42;99619.28;;;6.97;100.00
12676;BME280;63820;65.654;21.944;2022-10-16T13:39:29;99616.88;;;6.93;100.00
12676;BME280;63820;65.654;21.944;2022-10-16T13:42:26;99608.53;;;6.86;100.00
12676;BME280;63820;65.654;21.944;2022-10-16T13:45:22;99608.03;;;6.78;100.00
12676;BME280;63820;65.654;21.944;2022-10-16T13:48:10;99605.56;;;6.75;100.00
12676;BME280;63820;65.654;21.944;2022-10-16T13:51:05;99610.09;;;6.70;100.00
12676;BME280;63820;65.654;21.944;2022-10-16T13:53:49;99603.81;;;6.75;100.00
12676;BME280;63820;65.654;21.944;2022-10-16T13:56:34;99598.59;;;6.77;100.00
12676;BME280;63820;65.654;21.944;2022-10-16T13:59:33;99596.25;;;6.71;100.00
12676;BME280;63820;65.654;21.944;2022-10-16T14:02:31;99582.56;;;6.69;100.00
12676;BME280;63820;65.654;21.944;2022-10-16T14:05:18;99589.41;;;6.70;100.00
12676;BME280;63820;65.654;21.944;2022-10-16T14:08:02;99587.09;;;6.64;100.00
12676;BME280;63820;65.654;21.944;2022-10-16T14:10:51;99583.78;;;6.60;100.00
12676;BME280;63820;65.654;21.944;2022-10-16T14:13:39;99574.34;;;6.59;100.00
12676;BME280;63820;65.654;21.944;2022-10-16T14:16:29;99567.56;;;6.56;100.00
12676;BME280;63820;65.654;21.944;2022-10-16T14:19:19;99563.25;;;6.57;100.00
12676;BME280;63820;65.654;21.944;2022-10-16T14:22:28;99565.88;;;6.55;100.00
12676;BME280;63820;65.654;21.944;2022-10-16T14:28:22;99553.94;;;6.53;100.00
12676;BME280;63820;65.654;21.944;2022-10-16T14:34:34;99551.84;;;6.41;100.00
12676;BME280;63820;65.654;21.944;2022-10-16T14:37:24;99551.78;;;6.42;100.00
12676;BME280;63820;65.654;21.944;2022-10-16T14:40:14;99551.66;;;6.45;100.00
12676;BME280;63820;65.654;21.944;2022-10-16T14:43:00;99543.00;;;6.46;100.00
12676;BME280;63820;65.654;21.944;2022-10-16T14:45:51;99543.78;;;6.48;100.00
12676;BME280;63820;65.654;21.944;2022-10-16T14:48:40;99539.00;;;6.39;100.00
12676;BME280;63820;65.654;21.944;2022-10-16T14:51:26;99534.88;;;6.35;100.00
12676;BME280;63820;65.654;21.944;2022-10-16T14:54:15;99532.41;;;6.32;100.00
12676;BME280;63820;65.654;21.944;2022-10-16T14:56:59;99523.94;;;6.29;100.00
12676;BME280;63820;65.654;21.944;2022-10-16T14:59:44;99525.91;;;6.23;100.00
12676;BME280;63820;65.654;21.944;2022-10-16T15:02:35;99524.00;;;6.27;100.00
12676;BME280;63820;65.654;21.944;2022-10-16T15:05:25;99513.97;;;6.21;100.00
12676;BME280;63820;65.654;21.944;2022-10-16T15:08:10;99516.47;;;6.22;100.00
12676;BME280;63820;65.654;21.944;2022-10-16T15:10:56;99524.13;;;6.24;100.00
12676;BME280;63820;65.654;21.944;2022-10-16T15:13:40;99507.81;;;6.23;100.00
12676;BME280;63820;65.654;21.944;2022-10-16T15:16:24;99513.81;;;6.24;100.00
12676;BME280;63820;65.654;21.944;2022-10-16T15:19:08;99514.81;;;6.21;100.00
12676;BME280;63820;65.654;21.944;2022-10-16T15:21:52;99518.97;;;6.24;100.00
12676;BME280;63820;65.654;21.944;2022-10-16T15:24:36;99515.75;;;6.19;100.00
12676;BME280;63820;65.654;21.944;2022-10-16T15:27:21;99518.72;;;6.10;100.00
12676;BME280;63820;65.654;21.944;2022-10-16T15:30:05;99519.63;;;6.09;100.00
12676;BME280;63820;65.654;21.944;2022-10-16T15:32:50;99519.63;;;6.09;100.00
12676;BME280;63820;65.654;21.944;2022-10-16T15:35:33;99514.69;;;6.03;100.00
12676;BME280;63820;65.654;21.944;2022-10-16T15:38:20;99517.41;;;6.00;100.00
12676;BME280;63820;65.654;21.944;2022-10-16T15:41:04;99508.88;;;5.98;100.00
12676;BME280;63820;65.654;21.944;2022-10-16T15:43:49;99514.94;;;5.97;100.00
12676;BME280;63820;65.654;21.944;2022-10-16T15:46:33;99515.06;;;5.94;100.00
12676;BME280;63820;65.654;21.944;2022-10-16T15:49:18;99515.97;;;5.93;100.00
12676;BME280;63820;65.654;21.944;2022-10-16T15:52:03;99523.84;;;5.89;100.00
12676;BME280;63820;65.654;21.944;2022-10-16T15:54:47;99523.84;;;5.89;100.00
12676;BME280;63820;65.654;21.944;2022-10-16T15:57:31;99517.13;;;5.84;100.00
12676;BME280;63820;65.654;21.944;2022-10-16T16:00:17;99521.34;;;5.86;100.00